Time,TemperatureF,DewpointF,PressureIn,WindDirection,WindDirectionDegrees,WindSpeedMPH,WindSpeedGustMPH,Humidity,HourlyPrecipIn,Conditions,Clouds,dailyrainin,SoftwareType,DateUTC
2013-06-21 00:00:00,65.3,63.2,30.22,SW,214,0.0,1.0,93,0.00,,SKC,0.01,VWS V14.01,2013-06-21 04:00:00,
2013-06-21 00:01:00,65.3,63.2,30.22,SW,214,0.0,0.0,93,0.00,,SKC,0.00,VWS V14.01,2013-06-21 04:01:00,
2013-06-21 00:06:00,65.3,63.2,30.22,SW,215,0.0,0.0,93,0.00,,SKC,0.00,VWS V14.01,2013-06-21 04:06:00,
2013-06-21 00:11:00,65.1,63.3,30.22,SW,215,0.0,0.0,94,0.00,,SKC,0.00,VWS V14.01,2013-06-21 04:11:00,
2013-06-21 00:16:00,64.9,63.1,30.22,SW,215,0.0,0.0,94,0.00,,SKC,0.00,VWS V14.01,2013-06-21 04:16:00,
2013-06-21 00:21:00,64.8,63.0,30.22,SW,215,0.0,0.0,94,0.00,,SKC,0.00,VWS V14.01,2013-06-21 04:21:00,
2013-06-21 00:26:00,64.7,62.9,30.22,SW,215,0.0,0.0,94,0.00,,SKC,0.00,VWS V14.01,2013-06-21 04:26:00,
2013-06-21 00:30:00,64.7,62.9,30.22,SW,215,0.0,0.0,94,0.00,,SKC,0.00,VWS V14.01,2013-06-21 04:30:00,
2013-06-21 00:31:00,64.6,62.8,30.22,SW,215,0.0,0.0,94,0.00,,SKC,0.00,VWS V14.01,2013-06-21 04:31:00,
2013-06-21 00:36:00,64.6,62.8,30.22,SW,215,0.0,0.0,94,0.00,,SKC,0.00,VWS V14.01,2013-06-21 04:36:00,
2013-06-21 00:41:00,64.6,63.1,30.22,SW,215,1.0,1.0,95,0.00,,SKC,0.00,VWS V14.01,2013-06-21 04:41:00,
2013-06-21 00:46:00,64.5,63.0,30.22,SW,215,1.0,1.0,95,0.00,,SKC,0.00,VWS V14.01,2013-06-21 04:46:00,
2013-06-21 00:51:00,64.4,62.9,30.22,SW,215,0.0,1.0,95,0.00,,SKC,0.00,VWS V14.01,2013-06-21 04:51:00,
2013-06-21 00:56:00,64.4,62.9,30.21,SW,215,0.0,1.0,95,0.00,,SKC,0.00,VWS V14.01,2013-06-21 04:56:00,
2013-06-21 01:00:00,64.3,62.8,30.21,SW,215,0.0,1.0,95,0.00,,SKC,0.00,VWS V14.01,2013-06-21 05:00:00,
2013-06-21 01:01:00,64.3,62.8,30.22,SW,214,0.0,0.0,95,0.00,,SKC,0.00,VWS V14.01,2013-06-21 05:01:00,
2013-06-21 01:06:00,64.3,63.1,30.22,SW,215,0.0,0.0,96,0.00,,SKC,0.00,VWS V14.01,2013-06-21 05:06:00,
2013-06-21 01:11:00,64.3,63.1,30.22,SW,215,0.0,0.0,96,0.00,,SKC,0.00,VWS V14.01,2013-06-21 05:11:00,
2013-06-21 01:16:00,64.2,63.0,30.22,SW,215,0.0,0.0,96,0.00,,SKC,0.00,VWS V14.01,2013-06-21 05:16:00,
2013-06-21 01:21:00,64.2,63.0,30.22,SW,214,1.0,1.0,96,0.00,,SKC,0.00,VWS V14.01,2013-06-21 05:21:00,
2013-06-21 01:26:00,64.1,62.9,30.22,SW,215,0.0,1.0,96,0.00,,SKC,0.00,VWS V14.01,2013-06-21 05:26:00,
2013-06-21 01:30:00,64.1,62.9,30.21,SW,215,0.0,1.0,96,0.00,,SKC,0.00,VWS V14.01,2013-06-21 05:30:00,
2013-06-21 01:31:00,64.1,62.9,30.21,SW,215,0.0,1.0,96,0.00,,SKC,0.00,VWS V14.01,2013-06-21 05:31:00,
2013-06-21 01:36:00,64.1,62.9,30.22,SW,215,0.0,1.0,96,0.00,,SKC,0.00,VWS V14.01,2013-06-21 05:36:00,
2013-06-21 01:41:00,63.9,62.7,30.22,SW,215,0.0,1.0,96,0.00,,SKC,0.00,VWS V14.01,2013-06-21 05:41:00,
2013-06-21 01:46:00,63.8,62.6,30.21,SW,215,0.0,1.0,96,0.00,,SKC,0.00,VWS V14.01,2013-06-21 05:46:00,
2013-06-21 01:51:00,63.7,62.5,30.21,SW,214,0.0,1.0,96,0.00,,SKC,0.00,VWS V14.01,2013-06-21 05:51:00,
2013-06-21 01:56:00,63.6,62.4,30.21,SW,215,0.0,1.0,96,0.00,,SKC,0.00,VWS V14.01,2013-06-21 05:56:00,
2013-06-21 02:00:00,63.5,62.3,30.21,SW,214,0.0,1.0,96,0.00,,SKC,0.00,VWS V14.01,2013-06-21 06:00:00,
2013-06-21 02:01:00,63.5,62.3,30.21,SW,214,0.0,0.0,96,0.00,,SKC,0.00,VWS V14.01,2013-06-21 06:01:00,
2013-06-21 02:06:00,63.4,62.5,30.21,SW,215,0.0,0.0,97,0.00,,SKC,0.00,VWS V14.01,2013-06-21 06:06:00,
2013-06-21 02:11:00,63.3,62.4,30.21,SW,214,0.0,0.0,97,0.00,,SKC,0.00,VWS V14.01,2013-06-21 06:11:00,
2013-06-21 02:16:00,63.3,62.4,30.21,SW,215,0.0,0.0,97,0.00,,SKC,0.00,VWS V14.01,2013-06-21 06:16:00,
2013-06-21 02:21:00,63.2,62.3,30.21,SW,215,0.0,0.0,97,0.00,,SKC,0.00,VWS V14.01,2013-06-21 06:21:00,
2013-06-21 02:26:00,63.0,62.1,30.21,SW,215,0.0,0.0,97,0.00,,SKC,0.00,VWS V14.01,2013-06-21 06:26:00,
2013-06-21 02:30:00,62.9,62.0,30.21,SW,214,0.0,0.0,97,0.00,,SKC,0.00,VWS V14.01,2013-06-21 06:30:00,
2013-06-21 02:31:00,62.9,62.0,30.21,SW,215,0.0,1.0,97,0.00,,SKC,0.00,VWS V14.01,2013-06-21 06:31:00,
2013-06-21 02:36:00,62.9,62.0,30.20,SW,215,0.0,1.0,97,0.00,,SKC,0.00,VWS V14.01,2013-06-21 06:36:00,
2013-06-21 02:41:00,62.8,61.9,30.21,SW,215,0.0,1.0,97,0.00,,SKC,0.00,VWS V14.01,2013-06-21 06:41:00,
2013-06-21 02:46:00,62.5,61.6,30.20,SW,214,0.0,1.0,97,0.00,,SKC,0.00,VWS V14.01,2013-06-21 06:46:00,
2013-06-21 02:51:00,62.4,61.5,30.21,SW,215,0.0,1.0,97,0.00,,SKC,0.00,VWS V14.01,2013-06-21 06:51:00,
2013-06-21 02:56:00,62.2,61.3,30.20,SW,215,0.0,1.0,97,0.00,,SKC,0.00,VWS V14.01,2013-06-21 06:56:00,
2013-06-21 03:00:00,62.1,61.2,30.20,SW,215,0.0,1.0,97,0.00,,SKC,0.00,VWS V14.01,2013-06-21 07:00:00,
2013-06-21 03:01:00,62.1,61.2,30.20,SW,215,0.0,0.0,97,0.00,,SKC,0.00,VWS V14.01,2013-06-21 07:01:00,
2013-06-21 03:06:00,62.1,61.2,30.20,SW,215,0.0,0.0,97,0.00,,SKC,0.00,VWS V14.01,2013-06-21 07:06:00,
2013-06-21 03:11:00,62.0,61.1,30.20,SW,215,0.0,0.0,97,0.00,,SKC,0.00,VWS V14.01,2013-06-21 07:11:00,
2013-06-21 03:16:00,62.0,61.1,30.20,SW,215,0.0,1.0,97,0.00,,SKC,0.00,VWS V14.01,2013-06-21 07:16:00,
2013-06-21 03:21:00,62.0,61.4,30.20,NE,53,1.0,2.0,98,0.00,,SKC,0.00,VWS V14.01,2013-06-21 07:21:00,
2013-06-21 03:26:00,62.1,61.5,30.20,NE,54,1.0,2.0,98,0.00,,SKC,0.00,VWS V14.01,2013-06-21 07:26:00,
2013-06-21 03:30:00,62.1,61.5,30.21,NE,53,0.0,2.0,98,0.00,,SKC,0.00,VWS V14.01,2013-06-21 07:30:00,
2013-06-21 03:31:00,62.1,61.5,30.21,NE,54,0.0,0.0,98,0.00,,SKC,0.00,VWS V14.01,2013-06-21 07:31:00,
2013-06-21 03:36:00,62.2,61.6,30.21,NE,53,0.0,1.0,98,0.00,,SKC,0.00,VWS V14.01,2013-06-21 07:36:00,
2013-06-21 03:41:00,62.2,61.6,30.21,NE,53,0.0,1.0,98,0.00,,SKC,0.00,VWS V14.01,2013-06-21 07:41:00,
2013-06-21 03:46:00,62.2,61.6,30.21,NE,53,0.0,1.0,98,0.00,,SKC,0.00,VWS V14.01,2013-06-21 07:46:00,
2013-06-21 03:51:00,62.1,61.5,30.20,NE,53,0.0,1.0,98,0.00,,SKC,0.00,VWS V14.01,2013-06-21 07:51:00,
2013-06-21 03:56:00,62.1,61.5,30.20,NE,53,0.0,1.0,98,0.00,,SKC,0.00,VWS V14.01,2013-06-21 07:56:00,
2013-06-21 04:00:00,62.0,61.4,30.20,SSW,201,0.0,2.0,98,0.00,,SKC,0.00,VWS V14.01,2013-06-21 08:00:00,
2013-06-21 04:01:00,62.0,61.4,30.20,SSW,201,0.0,1.0,98,0.00,,SKC,0.00,VWS V14.01,2013-06-21 08:01:00,
2013-06-21 04:06:00,61.9,61.3,30.20,SSW,201,0.0,1.0,98,0.00,,SKC,0.00,VWS V14.01,2013-06-21 08:06:00,
2013-06-21 04:11:00,61.8,60.9,30.20,SSW,201,0.0,1.0,97,0.00,,SKC,0.00,VWS V14.01,2013-06-21 08:11:00,
2013-06-21 04:16:00,61.6,60.7,30.20,SSW,200,0.0,1.0,97,0.00,,SKC,0.00,VWS V14.01,2013-06-21 08:16:00,
2013-06-21 04:21:00,61.5,60.9,30.20,SSW,201,0.0,1.0,98,0.00,,SKC,0.00,VWS V14.01,2013-06-21 08:21:00,
2013-06-21 04:26:00,61.3,60.7,30.20,SSW,201,0.0,1.0,98,0.00,,SKC,0.00,VWS V14.01,2013-06-21 08:26:00,
2013-06-21 04:30:00,61.1,60.2,30.20,SSW,200,0.0,1.0,97,0.00,,SKC,0.00,VWS V14.01,2013-06-21 08:30:00,
2013-06-21 04:31:00,61.1,60.2,30.20,SSW,201,0.0,0.0,97,0.00,,SKC,0.00,VWS V14.01,2013-06-21 08:31:00,
2013-06-21 04:36:00,61.0,60.4,30.20,SSW,201,0.0,0.0,98,0.00,,SKC,0.00,VWS V14.01,2013-06-21 08:36:00,
2013-06-21 04:41:00,60.9,60.3,30.20,SSW,201,0.0,0.0,98,0.00,,SKC,0.00,VWS V14.01,2013-06-21 08:41:00,
2013-06-21 04:46:00,60.8,60.2,30.20,SSW,201,0.0,0.0,98,0.00,,SKC,0.00,VWS V14.01,2013-06-21 08:46:00,
2013-06-21 04:51:00,60.8,60.2,30.20,SSW,201,0.0,0.0,98,0.00,,SKC,0.00,VWS V14.01,2013-06-21 08:51:00,
2013-06-21 04:56:00,60.6,60.0,30.21,SSW,201,0.0,0.0,98,0.00,,SKC,0.00,VWS V14.01,2013-06-21 08:56:00,
2013-06-21 05:00:00,60.5,59.9,30.21,SSW,201,0.0,0.0,98,0.00,,SKC,0.00,VWS V14.01,2013-06-21 09:00:00,
2013-06-21 05:01:00,60.5,59.9,30.21,SSW,201,0.0,0.0,98,0.00,,SKC,0.00,VWS V14.01,2013-06-21 09:01:00,
2013-06-21 05:06:00,60.4,59.8,30.21,SSW,201,0.0,0.0,98,0.00,,SKC,0.00,VWS V14.01,2013-06-21 09:06:00,
2013-06-21 05:11:00,60.3,59.7,30.21,SSW,201,0.0,0.0,98,0.00,,SKC,0.00,VWS V14.01,2013-06-21 09:11:00,
2013-06-21 05:16:00,60.3,59.7,30.21,SSW,201,0.0,0.0,98,0.00,,SKC,0.00,VWS V14.01,2013-06-21 09:16:00,
2013-06-21 05:21:00,60.1,59.5,30.21,SSW,201,0.0,0.0,98,0.00,,SKC,0.00,VWS V14.01,2013-06-21 09:21:00,
2013-06-21 05:26:00,60.0,59.4,30.21,SSW,201,0.0,0.0,98,0.00,,SKC,0.00,VWS V14.01,2013-06-21 09:26:00,
2013-06-21 05:30:00,59.9,59.3,30.21,SSW,201,0.0,0.0,98,0.00,,SKC,0.00,VWS V14.01,2013-06-21 09:30:00,
2013-06-21 05:31:00,59.9,59.3,30.21,SSW,201,0.0,0.0,98,0.00,,SKC,0.00,VWS V14.01,2013-06-21 09:31:00,
2013-06-21 05:36:00,59.9,59.3,30.22,SSW,201,0.0,0.0,98,0.00,,SKC,0.00,VWS V14.01,2013-06-21 09:36:00,
2013-06-21 05:40:00,59.8,59.2,30.22,SSW,200,0.0,0.0,98,0.00,,SKC,0.00,VWS V14.01,2013-06-21 09:40:00,
2013-06-21 05:45:00,59.7,59.1,30.22,SSW,201,0.0,0.0,98,0.00,,SKC,0.00,VWS V14.01,2013-06-21 09:45:00,
2013-06-21 05:50:00,59.5,58.9,30.22,SSW,201,0.0,0.0,98,0.00,,SKC,0.00,VWS V14.01,2013-06-21 09:50:00,
2013-06-21 05:55:00,59.4,58.8,30.22,SSW,201,0.0,0.0,98,0.00,,SKC,0.00,VWS V14.01,2013-06-21 09:55:00,
2013-06-21 06:00:00,59.2,58.6,30.22,SSW,201,0.0,0.0,98,0.00,,SKC,0.00,VWS V14.01,2013-06-21 10:00:00,
2013-06-21 06:05:00,58.9,58.3,30.22,SSW,201,0.0,0.0,98,0.00,,SKC,0.00,VWS V14.01,2013-06-21 10:05:00,
2013-06-21 06:10:00,58.7,58.1,30.22,SSW,201,0.0,0.0,98,0.00,,SKC,0.00,VWS V14.01,2013-06-21 10:10:00,
2013-06-21 06:15:00,58.9,58.6,30.22,SSW,201,0.0,0.0,99,0.00,,SKC,0.00,VWS V14.01,2013-06-21 10:15:00,
2013-06-21 06:20:00,58.9,58.6,30.22,SSW,201,0.0,0.0,99,0.00,,SKC,0.00,VWS V14.01,2013-06-21 10:20:00,
2013-06-21 06:25:00,58.8,58.2,30.23,SSW,200,0.0,0.0,98,0.00,,SKC,0.00,VWS V14.01,2013-06-21 10:25:00,
2013-06-21 06:30:00,58.7,58.1,30.23,SSW,201,0.0,0.0,98,0.00,,SKC,0.00,VWS V14.01,2013-06-21 10:30:00,
2013-06-21 06:35:00,58.7,58.1,30.23,SSW,201,0.0,0.0,98,0.00,,SKC,0.00,VWS V14.01,2013-06-21 10:35:00,
2013-06-21 06:40:00,58.6,58.0,30.23,SSW,200,0.0,0.0,98,0.00,,SKC,0.00,VWS V14.01,2013-06-21 10:40:00,
2013-06-21 06:45:00,58.7,58.1,30.23,SSW,201,0.0,0.0,98,0.00,,SKC,0.00,VWS V14.01,2013-06-21 10:45:00,
2013-06-21 06:50:00,58.9,58.6,30.23,SSW,201,0.0,0.0,99,0.00,,SKC,0.00,VWS V14.01,2013-06-21 10:50:00,
2013-06-21 06:55:00,59.1,58.8,30.23,SSW,201,0.0,0.0,99,0.00,,SKC,0.00,VWS V14.01,2013-06-21 10:55:00,
2013-06-21 07:00:00,59.4,59.1,30.23,SSW,201,0.0,0.0,99,0.00,,SKC,0.00,VWS V14.01,2013-06-21 11:00:00,
2013-06-21 07:05:00,59.5,58.9,30.23,SSW,201,0.0,0.0,98,0.00,,SKC,0.00,VWS V14.01,2013-06-21 11:05:00,
2013-06-21 07:10:00,59.8,59.5,30.23,SSW,201,0.0,0.0,99,0.00,,SKC,0.00,VWS V14.01,2013-06-21 11:10:00,
2013-06-21 07:15:00,60.2,59.9,30.24,SSW,200,0.0,0.0,99,0.00,,SKC,0.00,VWS V14.01,2013-06-21 11:15:00,
2013-06-21 07:20:00,60.4,59.8,30.24,SSW,201,0.0,0.0,98,0.00,,SKC,0.00,VWS V14.01,2013-06-21 11:20:00,
2013-06-21 07:25:00,60.4,59.8,30.24,SSW,201,0.0,0.0,98,0.00,,SKC,0.00,VWS V14.01,2013-06-21 11:25:00,
2013-06-21 07:30:00,60.6,60.0,30.24,SSW,201,0.0,0.0,98,0.00,,SKC,0.00,VWS V14.01,2013-06-21 11:30:00,
2013-06-21 07:35:00,60.8,60.2,30.24,SSW,200,0.0,0.0,98,0.00,,SKC,0.00,VWS V14.01,2013-06-21 11:35:00,
2013-06-21 07:40:00,61.0,60.4,30.24,SSW,201,0.0,1.0,98,0.00,,SKC,0.00,VWS V14.01,2013-06-21 11:40:00,
2013-06-21 07:45:00,61.4,60.8,30.24,SSW,201,0.0,1.0,98,0.00,,SKC,0.00,VWS V14.01,2013-06-21 11:45:00,
2013-06-21 07:50:00,61.9,61.3,30.24,SSW,201,0.0,1.0,98,0.00,,SKC,0.00,VWS V14.01,2013-06-21 11:50:00,
2013-06-21 07:55:00,62.3,61.7,30.24,SSW,201,0.0,1.0,98,0.00,,SKC,0.00,VWS V14.01,2013-06-21 11:55:00,
2013-06-21 08:00:00,62.6,62.0,30.24,SSW,201,0.0,0.0,98,0.00,,SKC,0.00,VWS V14.01,2013-06-21 12:00:00,
2013-06-21 08:05:00,63.1,62.5,30.24,SSW,201,0.0,0.0,98,0.00,,SKC,0.00,VWS V14.01,2013-06-21 12:05:00,
2013-06-21 08:10:00,63.5,62.6,30.24,SSW,201,0.0,0.0,97,0.00,,SKC,0.00,VWS V14.01,2013-06-21 12:10:00,
2013-06-21 08:15:00,64.0,62.8,30.25,SSW,201,1.0,1.0,96,0.00,,SKC,0.00,VWS V14.01,2013-06-21 12:15:00,
2013-06-21 08:20:00,64.2,63.0,30.25,SSW,201,0.0,1.0,96,0.00,,SKC,0.00,VWS V14.01,2013-06-21 12:20:00,
2013-06-21 08:25:00,65.1,63.9,30.25,SSW,201,0.0,1.0,96,0.00,,SKC,0.00,VWS V14.01,2013-06-21 12:25:00,
2013-06-21 08:30:00,65.7,63.9,30.25,SSW,201,0.0,0.0,94,0.00,,SKC,0.00,VWS V14.01,2013-06-21 12:30:00,
2013-06-21 08:35:00,66.3,63.9,30.25,SSW,201,0.0,1.0,92,0.00,,SKC,0.00,VWS V14.01,2013-06-21 12:35:00,
2013-06-21 08:40:00,66.6,63.9,30.25,SW,221,1.0,2.0,91,0.00,,SKC,0.00,VWS V14.01,2013-06-21 12:40:00,
2013-06-21 08:45:00,67.1,64.4,30.25,SW,221,1.0,2.0,91,0.00,,SKC,0.00,VWS V14.01,2013-06-21 12:45:00,
2013-06-21 08:50:00,67.3,64.3,30.25,SW,221,0.0,2.0,90,0.00,,SKC,0.00,VWS V14.01,2013-06-21 12:50:00,
2013-06-21 08:55:00,67.9,64.2,30.25,SW,221,0.0,2.0,88,0.00,,SKC,0.00,VWS V14.01,2013-06-21 12:55:00,
2013-06-21 09:00:00,68.9,64.9,30.25,SSE,158,0.0,0.0,87,0.00,,SKC,0.00,VWS V14.01,2013-06-21 13:00:00,
2013-06-21 09:05:00,69.6,64.9,30.25,SSE,158,0.0,1.0,85,0.00,,SKC,0.00,VWS V14.01,2013-06-21 13:05:00,
2013-06-21 09:10:00,70.0,65.3,30.25,SW,221,0.0,1.0,85,0.00,,SKC,0.00,VWS V14.01,2013-06-21 13:10:00,
2013-06-21 09:15:00,70.5,65.4,30.25,West,277,0.0,2.0,84,0.00,,SKC,0.00,VWS V14.01,2013-06-21 13:15:00,
2013-06-21 09:20:00,71.0,65.2,30.25,South,176,2.0,2.0,82,0.00,,SKC,0.00,VWS V14.01,2013-06-21 13:20:00,
2013-06-21 09:25:00,71.1,65.0,30.25,SSW,205,0.0,3.0,81,0.00,,SKC,0.00,VWS V14.01,2013-06-21 13:25:00,
2013-06-21 09:30:00,71.4,65.6,30.25,SW,215,1.0,1.0,82,0.00,,SKC,0.00,VWS V14.01,2013-06-21 13:30:00,
2013-06-21 09:35:00,72.3,65.4,30.25,SW,226,2.0,3.0,79,0.00,,SKC,0.00,VWS V14.01,2013-06-21 13:35:00,
2013-06-21 09:40:00,72.2,65.0,30.25,SW,214,1.0,3.0,78,0.00,,SKC,0.00,VWS V14.01,2013-06-21 13:40:00,
2013-06-21 09:45:00,72.0,65.1,30.25,SSW,200,2.0,6.0,79,0.00,,SKC,0.00,VWS V14.01,2013-06-21 13:45:00,
2013-06-21 09:50:00,72.0,65.1,30.25,SSW,211,0.0,6.0,79,0.00,,SKC,0.00,VWS V14.01,2013-06-21 13:50:00,
2013-06-21 09:55:00,71.8,64.6,30.24,SSW,210,4.0,6.0,78,0.00,,SKC,0.00,VWS V14.01,2013-06-21 13:55:00,
2013-06-21 10:00:00,71.5,65.0,30.24,WSW,246,2.0,2.0,80,0.00,,SKC,0.00,VWS V14.01,2013-06-21 14:00:00,
2013-06-21 10:06:00,71.2,64.7,30.24,SW,236,2.0,3.0,80,0.00,,SKC,0.00,VWS V14.01,2013-06-21 14:06:00,
2013-06-21 10:11:00,71.0,64.2,30.25,SSW,205,0.0,4.0,79,0.00,,SKC,0.00,VWS V14.01,2013-06-21 14:11:00,
2013-06-21 10:16:00,71.0,64.9,30.24,WSW,246,1.0,4.0,81,0.00,,SKC,0.00,VWS V14.01,2013-06-21 14:16:00,
2013-06-21 10:21:00,71.1,64.6,30.24,NW,308,1.0,4.0,80,0.00,,SKC,0.00,VWS V14.01,2013-06-21 14:21:00,
2013-06-21 10:26:00,71.3,64.5,30.24,SW,215,0.0,4.0,79,0.00,,SKC,0.00,VWS V14.01,2013-06-21 14:26:00,
2013-06-21 10:30:00,71.8,65.7,30.24,SSW,200,1.0,4.0,81,0.00,,SKC,0.00,VWS V14.01,2013-06-21 14:30:00,
2013-06-21 10:31:00,71.8,64.6,30.24,SW,226,1.0,1.0,78,0.00,,SKC,0.00,VWS V14.01,2013-06-21 14:31:00,
2013-06-21 10:36:00,72.1,64.1,30.24,WSW,238,0.0,3.0,76,0.00,,SKC,0.00,VWS V14.01,2013-06-21 14:36:00,
2013-06-21 10:41:00,72.3,65.4,30.24,WNW,288,0.0,4.0,79,0.00,,SKC,0.00,VWS V14.01,2013-06-21 14:41:00,
2013-06-21 10:46:00,73.1,64.7,30.24,ENE,61,1.0,4.0,75,0.00,,SKC,0.00,VWS V14.01,2013-06-21 14:46:00,
2013-06-21 10:51:00,74.1,65.3,30.24,West,274,1.0,4.0,74,0.00,,SKC,0.00,VWS V14.01,2013-06-21 14:51:00,
2013-06-21 10:56:00,74.6,66.5,30.24,SSE,166,1.0,4.0,76,0.00,,SKC,0.00,VWS V14.01,2013-06-21 14:56:00,
2013-06-21 11:00:00,75.1,65.5,30.24,WSW,239,1.0,4.0,72,0.00,,SKC,0.00,VWS V14.01,2013-06-21 15:00:00,
2013-06-21 11:01:00,75.0,65.0,30.24,West,278,2.0,2.0,71,0.00,,SKC,0.00,VWS V14.01,2013-06-21 15:01:00,
2013-06-21 11:06:00,74.3,63.9,30.24,SW,215,1.0,3.0,70,0.00,,SKC,0.00,VWS V14.01,2013-06-21 15:06:00,
2013-06-21 11:11:00,74.3,64.3,30.24,South,184,0.0,3.0,71,0.00,,SKC,0.00,VWS V14.01,2013-06-21 15:11:00,
2013-06-21 11:16:00,74.3,63.9,30.24,West,266,1.0,3.0,70,0.00,,SKC,0.00,VWS V14.01,2013-06-21 15:16:00,
2013-06-21 11:21:00,74.0,63.6,30.24,SSW,194,0.0,3.0,70,0.00,,SKC,0.00,VWS V14.01,2013-06-21 15:21:00,
2013-06-21 11:26:00,74.1,64.9,30.24,SSW,201,0.0,3.0,73,0.00,,SKC,0.00,VWS V14.01,2013-06-21 15:26:00,
2013-06-21 11:30:00,74.2,65.0,30.24,SSW,201,0.0,3.0,73,0.00,,SKC,0.00,VWS V14.01,2013-06-21 15:30:00,
2013-06-21 11:31:00,74.2,65.4,30.24,SSW,201,0.0,0.0,74,0.00,,SKC,0.00,VWS V14.01,2013-06-21 15:31:00,
2013-06-21 11:36:00,74.2,65.4,30.24,SSW,201,1.0,1.0,74,0.00,,SKC,0.00,VWS V14.01,2013-06-21 15:36:00,
2013-06-21 11:41:00,74.4,64.8,30.24,SW,226,2.0,3.0,72,0.00,,SKC,0.00,VWS V14.01,2013-06-21 15:41:00,
2013-06-21 11:46:00,74.7,65.1,30.24,SSW,207,1.0,4.0,72,0.00,,SKC,0.00,VWS V14.01,2013-06-21 15:46:00,
2013-06-21 11:51:00,74.7,64.3,30.24,West,263,1.0,4.0,70,0.00,,SKC,0.00,VWS V14.01,2013-06-21 15:51:00,
2013-06-21 11:56:00,75.0,65.0,30.24,South,174,1.0,5.0,71,0.00,,SKC,0.00,VWS V14.01,2013-06-21 15:56:00,
2013-06-21 12:00:00,75.5,64.6,30.24,SSW,208,3.0,5.0,69,0.00,,SKC,0.00,VWS V14.01,2013-06-21 16:00:00,
2013-06-21 12:01:00,75.5,64.6,30.24,SSW,205,2.0,3.0,69,0.00,,SKC,0.00,VWS V14.01,2013-06-21 16:01:00,
2013-06-21 12:06:00,75.6,65.5,30.24,WNW,287,1.0,6.0,71,0.00,,SKC,0.00,VWS V14.01,2013-06-21 16:06:00,
2013-06-21 12:11:00,75.7,66.4,30.24,NW,312,1.0,6.0,73,0.00,,SKC,0.00,VWS V14.01,2013-06-21 16:11:00,
2013-06-21 12:16:00,76.3,65.4,30.24,South,172,2.0,6.0,69,0.00,,SKC,0.00,VWS V14.01,2013-06-21 16:16:00,
2013-06-21 12:21:00,76.1,63.9,30.24,WSW,248,1.0,6.0,66,0.00,,SKC,0.00,VWS V14.01,2013-06-21 16:21:00,
2013-06-21 12:26:00,76.0,64.7,30.24,WSW,253,1.0,6.0,68,0.00,,SKC,0.00,VWS V14.01,2013-06-21 16:26:00,
2013-06-21 12:30:00,76.1,65.2,30.24,SW,221,1.0,6.0,69,0.00,,SKC,0.00,VWS V14.01,2013-06-21 16:30:00,
2013-06-21 12:31:00,76.1,64.4,30.24,SW,228,1.0,2.0,67,0.00,,SKC,0.00,VWS V14.01,2013-06-21 16:31:00,
2013-06-21 12:36:00,75.9,65.0,30.24,SSE,166,2.0,4.0,69,0.00,,SKC,0.00,VWS V14.01,2013-06-21 16:36:00,
2013-06-21 12:41:00,76.4,65.9,30.24,NW,304,2.0,4.0,70,0.00,,SKC,0.00,VWS V14.01,2013-06-21 16:41:00,
2013-06-21 12:46:00,76.8,65.9,30.23,South,184,2.0,4.0,69,0.00,,SKC,0.00,VWS V14.01,2013-06-21 16:46:00,
2013-06-21 12:51:00,76.9,66.0,30.23,WSW,254,0.0,4.0,69,0.00,,SKC,0.00,VWS V14.01,2013-06-21 16:51:00,
2013-06-21 12:56:00,76.3,64.1,30.24,SW,225,2.0,4.0,66,0.00,,SKC,0.00,VWS V14.01,2013-06-21 16:56:00,
2013-06-21 13:00:00,75.8,64.1,30.24,SSW,201,1.0,4.0,67,0.00,,SKC,0.00,VWS V14.01,2013-06-21 17:00:00,
2013-06-21 13:01:00,75.8,64.9,30.23,SSW,201,0.0,1.0,69,0.00,,SKC,0.00,VWS V14.01,2013-06-21 17:01:00,
2013-06-21 13:06:00,75.8,65.3,30.23,SSW,201,0.0,1.0,70,0.00,,SKC,0.00,VWS V14.01,2013-06-21 17:06:00,
2013-06-21 13:11:00,75.7,66.0,30.23,ENE,75,0.0,2.0,72,0.00,,SKC,0.00,VWS V14.01,2013-06-21 17:11:00,
2013-06-21 13:16:00,75.9,65.8,30.23,SW,224,1.0,2.0,71,0.00,,SKC,0.00,VWS V14.01,2013-06-21 17:16:00,
2013-06-21 13:21:00,76.1,64.8,30.23,SW,231,2.0,3.0,68,0.00,,SKC,0.00,VWS V14.01,2013-06-21 17:21:00,
2013-06-21 13:27:00,76.8,65.9,30.23,SSW,197,1.0,3.0,69,0.00,,SKC,0.00,VWS V14.01,2013-06-21 17:27:00,
2013-06-21 13:30:00,77.5,66.5,30.23,North,9,1.0,3.0,69,0.00,,SKC,0.00,VWS V14.01,2013-06-21 17:30:00,
2013-06-21 13:32:00,77.5,65.7,30.23,WSW,241,3.0,3.0,67,0.00,,SKC,0.00,VWS V14.01,2013-06-21 17:32:00,
2013-06-21 13:37:00,77.3,65.5,30.23,SSE,166,1.0,3.0,67,0.00,,SKC,0.00,VWS V14.01,2013-06-21 17:37:00,
2013-06-21 13:42:00,78.6,65.0,30.22,WSW,245,0.0,3.0,63,0.00,,SKC,0.00,VWS V14.01,2013-06-21 17:42:00,
2013-06-21 13:46:00,78.7,65.1,30.22,WSW,245,1.0,3.0,63,0.00,,SKC,0.00,VWS V14.01,2013-06-21 17:46:00,
2013-06-21 13:47:00,78.6,66.7,30.22,SSW,198,1.0,3.0,67,0.00,,SKC,0.00,VWS V14.01,2013-06-21 17:47:00,
2013-06-21 13:52:00,79.4,65.7,30.23,South,170,1.0,3.0,63,0.00,,SKC,0.00,VWS V14.01,2013-06-21 17:52:00,
2013-06-21 13:58:00,80.0,66.7,30.22,SW,219,2.0,4.0,64,0.00,,SKC,0.00,VWS V14.01,2013-06-21 17:58:00,
2013-06-21 14:00:00,79.8,64.7,30.22,SW,225,2.0,4.0,60,0.00,,SKC,0.00,VWS V14.01,2013-06-21 18:00:00,
2013-06-21 14:03:00,79.3,65.2,30.22,SW,217,0.0,2.0,62,0.00,,SKC,0.00,VWS V14.01,2013-06-21 18:03:00,
2013-06-21 14:08:00,80.1,65.4,30.22,SW,215,1.0,4.0,61,0.00,,SKC,0.00,VWS V14.01,2013-06-21 18:08:00,
2013-06-21 14:13:00,80.0,65.4,30.21,WNW,285,1.0,4.0,61,0.00,,SKC,0.00,VWS V14.01,2013-06-21 18:13:00,
2013-06-21 14:18:00,79.5,66.3,30.21,SSW,203,3.0,4.0,64,0.00,,SKC,0.00,VWS V14.01,2013-06-21 18:18:00,
2013-06-21 14:23:00,78.9,64.8,30.21,West,269,1.0,4.0,62,0.00,,SKC,0.00,VWS V14.01,2013-06-21 18:23:00,
2013-06-21 14:28:00,78.5,65.3,30.20,NW,305,0.0,4.0,64,0.00,,SKC,0.00,VWS V14.01,2013-06-21 18:28:00,
2013-06-21 14:30:00,78.6,65.0,30.20,NW,305,0.0,4.0,63,0.00,,SKC,0.00,VWS V14.01,2013-06-21 18:30:00,
2013-06-21 14:33:00,79.1,65.9,30.20,NW,319,0.0,5.0,64,0.00,,SKC,0.00,VWS V14.01,2013-06-21 18:33:00,
2013-06-21 14:38:00,79.9,68.8,30.20,SSW,205,2.0,5.0,69,0.00,,SKC,0.00,VWS V14.01,2013-06-21 18:38:00,
2013-06-21 14:43:00,80.5,64.4,30.20,SSW,203,2.0,5.0,58,0.00,,SKC,0.00,VWS V14.01,2013-06-21 18:43:00,
2013-06-21 14:45:00,80.7,65.1,30.20,SSW,203,4.0,5.0,59,0.00,,SKC,0.00,VWS V14.01,2013-06-21 18:45:00,
2013-06-21 14:50:00,79.6,63.5,30.20,SSW,211,2.0,5.0,58,0.00,,SKC,0.00,VWS V14.01,2013-06-21 18:50:00,
2013-06-21 14:55:00,78.8,64.2,30.20,WNW,282,0.0,5.0,61,0.00,,SKC,0.00,VWS V14.01,2013-06-21 18:55:00,
2013-06-21 15:00:00,79.6,65.0,30.20,NW,316,1.0,3.0,61,0.00,,SKC,0.00,VWS V14.01,2013-06-21 19:00:00,
2013-06-21 15:05:00,80.2,66.9,30.19,SW,232,2.0,4.0,64,0.00,,SKC,0.00,VWS V14.01,2013-06-21 19:05:00,
2013-06-21 15:10:00,81.0,64.8,30.19,South,188,1.0,4.0,58,0.00,,SKC,0.00,VWS V14.01,2013-06-21 19:10:00,
2013-06-21 15:15:00,81.1,64.4,30.19,NW,306,1.0,6.0,57,0.00,,SKC,0.00,VWS V14.01,2013-06-21 19:15:00,
2013-06-21 15:20:00,81.4,64.2,30.19,SSW,198,1.0,6.0,56,0.00,,SKC,0.00,VWS V14.01,2013-06-21 19:20:00,
2013-06-21 15:25:00,81.5,64.8,30.19,WSW,250,1.0,6.0,57,0.00,,SKC,0.00,VWS V14.01,2013-06-21 19:25:00,
2013-06-21 15:30:00,81.0,63.8,30.18,WSW,243,2.0,2.0,56,0.00,,SKC,0.00,VWS V14.01,2013-06-21 19:30:00,
2013-06-21 15:35:00,80.9,63.2,30.18,SW,233,1.0,4.0,55,0.00,,SKC,0.00,VWS V14.01,2013-06-21 19:35:00,
2013-06-21 15:40:00,80.4,62.8,30.18,NW,316,2.0,4.0,55,0.00,,SKC,0.00,VWS V14.01,2013-06-21 19:40:00,
2013-06-21 15:42:00,80.4,63.8,30.19,WSW,252,1.0,4.0,57,0.00,,SKC,0.00,VWS V14.01,2013-06-21 19:42:00,
2013-06-21 15:48:00,80.8,61.5,30.19,West,277,1.0,4.0,52,0.00,,SKC,0.00,VWS V14.01,2013-06-21 19:48:00,
2013-06-21 15:53:00,80.9,61.6,30.18,NNW,336,0.0,5.0,52,0.00,,SKC,0.00,VWS V14.01,2013-06-21 19:53:00,
2013-06-21 15:58:00,81.5,63.8,30.18,SW,219,1.0,5.0,55,0.00,,SKC,0.00,VWS V14.01,2013-06-21 19:58:00,
2013-06-21 16:00:00,82.1,63.8,30.18,SSW,205,0.0,5.0,54,0.00,,SKC,0.00,VWS V14.01,2013-06-21 20:00:00,
2013-06-21 16:03:00,83.0,64.1,30.18,West,278,3.0,3.0,53,0.00,,SKC,0.00,VWS V14.01,2013-06-21 20:03:00,
2013-06-21 16:04:00,83.1,65.3,30.18,SSW,211,3.0,3.0,55,0.00,,SKC,0.00,VWS V14.01,2013-06-21 20:04:00,
2013-06-21 16:08:00,82.6,63.2,30.18,WNW,293,1.0,4.0,52,0.00,,SKC,0.00,VWS V14.01,2013-06-21 20:08:00,
2013-06-21 16:11:00,82.8,64.5,30.18,NW,311,1.0,4.0,54,0.00,,SKC,0.00,VWS V14.01,2013-06-21 20:11:00,
2013-06-21 16:15:00,83.7,65.3,30.17,SW,228,1.0,4.0,54,0.00,,SKC,0.00,VWS V14.01,2013-06-21 20:15:00,
2013-06-21 16:20:00,83.3,61.6,30.17,WNW,297,2.0,4.0,48,0.00,,SKC,0.00,VWS V14.01,2013-06-21 20:20:00,
2013-06-21 16:25:00,82.5,62.0,30.17,SW,226,2.0,4.0,50,0.00,,SKC,0.00,VWS V14.01,2013-06-21 20:25:00,
2013-06-21 16:30:00,82.6,62.7,30.17,WSW,246,1.0,2.0,51,0.00,,SKC,0.00,VWS V14.01,2013-06-21 20:30:00,
2013-06-21 16:35:00,83.6,62.4,30.17,West,281,0.0,4.0,49,0.00,,SKC,0.00,VWS V14.01,2013-06-21 20:35:00,
2013-06-21 16:40:00,84.2,63.6,30.17,SSE,166,0.0,4.0,50,0.00,,SKC,0.00,VWS V14.01,2013-06-21 20:40:00,
2013-06-21 16:46:00,83.4,63.4,30.17,NE,44,2.0,4.0,51,0.00,,SKC,0.00,VWS V14.01,2013-06-21 20:46:00,
2013-06-21 16:51:00,81.6,63.4,30.17,ENE,57,2.0,4.0,54,0.00,,SKC,0.00,VWS V14.01,2013-06-21 20:51:00,
2013-06-21 16:56:00,80.6,61.9,30.17,SE,131,0.0,4.0,53,0.00,,SKC,0.00,VWS V14.01,2013-06-21 20:56:00,
2013-06-21 17:00:00,80.1,63.5,30.17,South,177,1.0,4.0,57,0.00,,SKC,0.00,VWS V14.01,2013-06-21 21:00:00,
2013-06-21 17:01:00,80.0,63.9,30.17,SW,233,1.0,1.0,58,0.00,,SKC,0.00,VWS V14.01,2013-06-21 21:01:00,
2013-06-21 17:04:00,79.5,64.4,30.17,SW,233,0.0,1.0,60,0.00,,SKC,0.00,VWS V14.01,2013-06-21 21:04:00,
2013-06-21 17:09:00,79.0,63.9,30.17,SW,236,1.0,4.0,60,0.00,,SKC,0.00,VWS V14.01,2013-06-21 21:09:00,
2013-06-21 17:14:00,78.3,63.8,30.17,SW,233,1.0,4.0,61,0.00,,SKC,0.00,VWS V14.01,2013-06-21 21:14:00,
2013-06-21 17:19:00,77.5,63.0,30.17,East,82,3.0,4.0,61,0.00,,SKC,0.00,VWS V14.01,2013-06-21 21:19:00,
2013-06-21 17:24:00,77.0,63.9,30.17,South,176,1.0,4.0,64,0.00,,SKC,0.00,VWS V14.01,2013-06-21 21:24:00,
2013-06-21 17:29:00,77.0,63.9,30.16,ESE,121,0.0,4.0,64,0.00,,SKC,0.00,VWS V14.01,2013-06-21 21:29:00,
2013-06-21 17:30:00,77.0,63.0,30.16,ESE,121,0.0,4.0,62,0.00,,SKC,0.00,VWS V14.01,2013-06-21 21:30:00,
2013-06-21 17:34:00,77.2,63.2,30.16,ESE,121,0.0,0.0,62,0.00,,SKC,0.00,VWS V14.01,2013-06-21 21:34:00,
2013-06-21 17:39:00,77.5,63.9,30.16,ESE,121,0.0,1.0,63,0.00,,SKC,0.00,VWS V14.01,2013-06-21 21:39:00,
2013-06-21 17:52:00,79.4,64.8,30.16,SW,218,1.0,1.0,61,0.00,,SKC,0.00,VWS V14.01,2013-06-21 21:52:00,
2013-06-21 17:57:00,80.2,64.1,30.15,SW,230,0.0,3.0,58,0.00,,SKC,0.00,VWS V14.01,2013-06-21 21:57:00,
2013-06-21 18:00:00,80.4,64.3,30.15,SE,131,2.0,3.0,58,0.00,,SKC,0.00,VWS V14.01,2013-06-21 22:00:00,
2013-06-21 18:02:00,80.5,64.9,30.15,WSW,242,0.0,3.0,59,0.00,,SKC,0.00,VWS V14.01,2013-06-21 22:02:00,
2013-06-21 18:07:00,81.0,65.8,30.15,SSW,211,1.0,3.0,60,0.00,,SKC,0.00,VWS V14.01,2013-06-21 22:07:00,
2013-06-21 18:12:00,81.3,66.1,30.15,SSW,204,0.0,3.0,60,0.00,,SKC,0.00,VWS V14.01,2013-06-21 22:12:00,
2013-06-21 18:17:00,81.7,65.5,30.15,SW,235,1.0,3.0,58,0.00,,SKC,0.00,VWS V14.01,2013-06-21 22:17:00,
2013-06-21 18:22:00,82.1,66.8,30.15,SSW,203,1.0,3.0,60,0.00,,SKC,0.00,VWS V14.01,2013-06-21 22:22:00,
2013-06-21 18:27:00,82.8,66.0,30.15,West,276,0.0,4.0,57,0.00,,SKC,0.00,VWS V14.01,2013-06-21 22:27:00,
2013-06-21 18:30:00,83.0,66.2,30.15,WSW,238,1.0,4.0,57,0.00,,SKC,0.00,VWS V14.01,2013-06-21 22:30:00,
2013-06-21 18:32:00,82.9,63.5,30.15,SSW,198,2.0,5.0,52,0.00,,SKC,0.00,VWS V14.01,2013-06-21 22:32:00,
2013-06-21 18:37:00,82.8,63.4,30.15,SSW,194,2.0,5.0,52,0.00,,SKC,0.00,VWS V14.01,2013-06-21 22:37:00,
2013-06-21 18:42:00,83.0,64.7,30.14,NNW,343,0.0,5.0,54,0.00,,SKC,0.00,VWS V14.01,2013-06-21 22:42:00,
2013-06-21 18:47:00,82.8,65.0,30.14,North,11,0.0,5.0,55,0.00,,SKC,0.00,VWS V14.01,2013-06-21 22:47:00,
2013-06-21 18:52:00,82.5,63.1,30.15,SSW,198,0.0,5.0,52,0.00,,SKC,0.00,VWS V14.01,2013-06-21 22:52:00,
2013-06-21 18:57:00,82.5,65.2,30.15,SW,221,0.0,5.0,56,0.00,,SKC,0.00,VWS V14.01,2013-06-21 22:57:00,
2013-06-21 19:00:00,82.5,64.2,30.15,West,269,1.0,5.0,54,0.00,,SKC,0.00,VWS V14.01,2013-06-21 23:00:00,
2013-06-21 19:02:00,82.3,62.9,30.15,SW,219,1.0,2.0,52,0.00,,SKC,0.00,VWS V14.01,2013-06-21 23:02:00,
2013-06-21 19:07:00,82.1,62.8,30.15,SW,224,2.0,3.0,52,0.00,,SKC,0.00,VWS V14.01,2013-06-21 23:07:00,
2013-06-21 19:12:00,81.6,62.8,30.15,SW,231,0.0,4.0,53,0.00,,SKC,0.00,VWS V14.01,2013-06-21 23:12:00,
2013-06-21 19:17:00,81.4,63.7,30.15,South,172,4.0,4.0,55,0.00,,SKC,0.00,VWS V14.01,2013-06-21 23:17:00,
2013-06-21 19:22:00,81.3,62.5,30.15,NW,316,0.0,4.0,53,0.00,,SKC,0.00,VWS V14.01,2013-06-21 23:22:00,
2013-06-21 19:27:00,81.0,62.3,30.15,SW,224,2.0,4.0,53,0.00,,SKC,0.00,VWS V14.01,2013-06-21 23:27:00,
2013-06-21 19:30:00,80.9,62.7,30.15,SSW,207,1.0,4.0,54,0.00,,SKC,0.00,VWS V14.01,2013-06-21 23:30:00,
2013-06-21 19:32:00,80.7,62.5,30.15,SSW,195,0.0,2.0,54,0.00,,SKC,0.00,VWS V14.01,2013-06-21 23:32:00,
2013-06-21 19:37:00,80.5,62.9,30.15,WSW,255,0.0,3.0,55,0.00,,SKC,0.00,VWS V14.01,2013-06-21 23:37:00,
2013-06-21 19:42:00,80.0,61.9,30.15,West,274,0.0,6.0,54,0.00,,SKC,0.00,VWS V14.01,2013-06-21 23:42:00,
2013-06-21 19:47:00,79.4,61.8,30.15,SE,128,1.0,6.0,55,0.00,,SKC,0.00,VWS V14.01,2013-06-21 23:47:00,
2013-06-21 19:52:00,78.7,61.7,30.15,West,259,0.0,6.0,56,0.00,,SKC,0.00,VWS V14.01,2013-06-21 23:52:00,
2013-06-21 19:57:00,77.9,61.5,30.15,SW,232,0.0,6.0,57,0.00,,SKC,0.00,VWS V14.01,2013-06-21 23:57:00,
2013-06-21 20:00:00,77.4,61.5,30.15,North,1,1.0,6.0,58,0.00,,SKC,0.00,VWS V14.01,2013-06-22 00:00:00,
2013-06-21 20:02:00,77.0,61.6,30.15,NE,38,0.0,1.0,59,0.00,,SKC,0.00,VWS V14.01,2013-06-22 00:02:00,
2013-06-21 20:07:00,76.2,61.8,30.16,SSE,166,0.0,3.0,61,0.00,,SKC,0.00,VWS V14.01,2013-06-22 00:07:00,
2013-06-21 20:12:00,75.3,61.4,30.16,South,177,0.0,3.0,62,0.00,,SKC,0.00,VWS V14.01,2013-06-22 00:12:00,
2013-06-21 20:17:00,74.6,61.2,30.16,SW,232,0.0,3.0,63,0.00,,SKC,0.00,VWS V14.01,2013-06-22 00:17:00,
2013-06-21 20:22:00,74.0,61.5,30.16,SW,232,0.0,3.0,65,0.00,,SKC,0.00,VWS V14.01,2013-06-22 00:22:00,
2013-06-21 20:27:00,73.4,61.4,30.16,SW,232,0.0,3.0,66,0.00,,SKC,0.00,VWS V14.01,2013-06-22 00:27:00,
2013-06-21 20:30:00,73.1,61.5,30.16,SW,233,1.0,3.0,67,0.00,,SKC,0.00,VWS V14.01,2013-06-22 00:30:00,
2013-06-21 20:32:00,73.0,61.4,30.15,SW,232,0.0,1.0,67,0.00,,SKC,0.00,VWS V14.01,2013-06-22 00:32:00,
2013-06-21 20:37:00,72.5,61.3,30.16,SSW,211,0.0,2.0,68,0.00,,SKC,0.00,VWS V14.01,2013-06-22 00:37:00,
2013-06-21 20:42:00,72.0,61.3,30.16,SSW,208,0.0,2.0,69,0.00,,SKC,0.00,VWS V14.01,2013-06-22 00:42:00,
2013-06-21 20:47:00,71.6,61.3,30.16,SSW,207,0.0,2.0,70,0.00,,SKC,0.00,VWS V14.01,2013-06-22 00:47:00,
2013-06-21 20:52:00,71.2,61.3,30.16,SSW,208,0.0,2.0,71,0.00,,SKC,0.00,VWS V14.01,2013-06-22 00:52:00,
2013-06-21 20:57:00,70.8,60.9,30.16,SSW,208,0.0,2.0,71,0.00,,SKC,0.00,VWS V14.01,2013-06-22 00:57:00,
2013-06-21 21:00:00,70.6,61.2,30.16,SSW,208,0.0,2.0,72,0.00,,SKC,0.00,VWS V14.01,2013-06-22 01:00:00,
2013-06-21 21:02:00,70.5,61.0,30.16,SSW,208,0.0,1.0,72,0.00,,SKC,0.00,VWS V14.01,2013-06-22 01:02:00,
2013-06-21 21:07:00,70.3,60.9,30.16,SSW,207,0.0,1.0,72,0.00,,SKC,0.00,VWS V14.01,2013-06-22 01:07:00,
2013-06-21 21:12:00,70.0,61.0,30.16,SSW,208,0.0,1.0,73,0.00,,SKC,0.00,VWS V14.01,2013-06-22 01:12:00,
2013-06-21 21:17:00,69.9,61.2,30.16,SSW,208,0.0,1.0,74,0.00,,SKC,0.00,VWS V14.01,2013-06-22 01:17:00,
2013-06-21 21:22:00,69.7,61.0,30.17,SSW,208,0.0,1.0,74,0.00,,SKC,0.00,VWS V14.01,2013-06-22 01:22:00,
2013-06-21 21:27:00,69.5,60.9,30.17,SSW,208,0.0,1.0,74,0.00,,SKC,0.00,VWS V14.01,2013-06-22 01:27:00,
2013-06-21 21:30:00,69.4,61.1,30.17,SSW,208,1.0,1.0,75,0.00,,SKC,0.00,VWS V14.01,2013-06-22 01:30:00,
2013-06-21 21:32:00,69.3,61.0,30.17,SSW,208,0.0,1.0,75,0.00,,SKC,0.00,VWS V14.01,2013-06-22 01:32:00,
2013-06-21 21:37:00,69.0,61.1,30.17,WSW,253,0.0,1.0,76,0.00,,SKC,0.00,VWS V14.01,2013-06-22 01:37:00,
2013-06-21 21:42:00,68.7,60.8,30.18,WSW,253,0.0,1.0,76,0.00,,SKC,0.00,VWS V14.01,2013-06-22 01:42:00,
2013-06-21 21:47:00,68.4,60.9,30.18,WSW,253,0.0,1.0,77,0.00,,SKC,0.00,VWS V14.01,2013-06-22 01:47:00,
2013-06-21 21:52:00,68.2,61.1,30.18,WSW,253,0.0,1.0,78,0.00,,SKC,0.00,VWS V14.01,2013-06-22 01:52:00,
2013-06-21 21:57:00,67.8,61.1,30.19,WSW,253,0.0,1.0,79,0.00,,SKC,0.00,VWS V14.01,2013-06-22 01:57:00,
2013-06-21 22:00:00,67.5,61.1,30.19,WSW,253,0.0,1.0,80,0.00,,SKC,0.00,VWS V14.01,2013-06-22 02:00:00,
2013-06-21 22:02:00,67.5,61.1,30.19,WSW,253,1.0,1.0,80,0.00,,SKC,0.00,VWS V14.01,2013-06-22 02:02:00,
2013-06-21 22:07:00,67.5,61.1,30.19,SW,214,1.0,2.0,80,0.00,,SKC,0.00,VWS V14.01,2013-06-22 02:07:00,
2013-06-21 22:12:00,67.4,61.4,30.19,SW,214,0.0,2.0,81,0.00,,SKC,0.00,VWS V14.01,2013-06-22 02:12:00,
2013-06-21 22:17:00,67.1,61.1,30.20,SW,214,1.0,2.0,81,0.00,,SKC,0.00,VWS V14.01,2013-06-22 02:17:00,
2013-06-21 22:22:00,66.9,61.2,30.20,SW,214,0.0,2.0,82,0.00,,SKC,0.00,VWS V14.01,2013-06-22 02:22:00,
2013-06-21 22:27:00,66.5,61.2,30.20,SW,214,0.0,2.0,83,0.00,,SKC,0.00,VWS V14.01,2013-06-22 02:27:00,
2013-06-21 22:30:00,66.2,60.9,30.20,SW,214,0.0,2.0,83,0.00,,SKC,0.00,VWS V14.01,2013-06-22 02:30:00,
2013-06-21 22:32:00,66.1,60.8,30.20,SW,214,0.0,0.0,83,0.00,,SKC,0.00,VWS V14.01,2013-06-22 02:32:00,
2013-06-21 22:37:00,65.6,61.0,30.20,SW,214,1.0,1.0,85,0.00,,SKC,0.00,VWS V14.01,2013-06-22 02:37:00,
2013-06-21 22:42:00,65.2,60.6,30.20,SW,214,0.0,1.0,85,0.00,,SKC,0.00,VWS V14.01,2013-06-22 02:42:00,
2013-06-21 22:46:00,64.8,60.5,30.20,SW,214,0.0,1.0,86,0.00,,SKC,0.00,VWS V14.01,2013-06-22 02:46:00,
2013-06-21 22:51:00,64.5,60.5,30.20,SW,214,1.0,1.0,87,0.00,,SKC,0.00,VWS V14.01,2013-06-22 02:51:00,
2013-06-21 22:56:00,64.4,60.5,30.21,SW,214,0.0,1.0,87,0.00,,SKC,0.00,VWS V14.01,2013-06-22 02:56:00,
2013-06-21 23:00:00,64.3,60.3,30.21,SW,214,0.0,1.0,87,0.00,,SKC,0.00,VWS V14.01,2013-06-22 03:00:00,
2013-06-21 23:01:00,64.2,60.3,30.21,SW,214,0.0,0.0,87,0.00,,SKC,0.00,VWS V14.01,2013-06-22 03:01:00,
2013-06-21 23:06:00,64.0,60.4,30.21,SW,214,0.0,0.0,88,0.00,,SKC,0.00,VWS V14.01,2013-06-22 03:06:00,
2013-06-21 23:11:00,63.7,60.1,30.22,SW,214,0.0,0.0,88,0.00,,SKC,0.00,VWS V14.01,2013-06-22 03:11:00,
2013-06-21 23:16:00,63.5,60.2,30.22,SW,214,0.0,0.0,89,0.00,,SKC,0.00,VWS V14.01,2013-06-22 03:16:00,
2013-06-21 23:21:00,63.3,60.0,30.22,SW,214,0.0,0.0,89,0.00,,SKC,0.00,VWS V14.01,2013-06-22 03:21:00,
2013-06-21 23:26:00,63.0,60.0,30.22,SW,214,0.0,0.0,90,0.00,,SKC,0.00,VWS V14.01,2013-06-22 03:26:00,
2013-06-21 23:30:00,63.0,60.3,30.21,SW,214,0.0,0.0,91,0.00,,SKC,0.00,VWS V14.01,2013-06-22 03:30:00,
2013-06-21 23:31:00,62.9,59.9,30.21,SW,214,0.0,0.0,90,0.00,,SKC,0.00,VWS V14.01,2013-06-22 03:31:00,
2013-06-21 23:36:00,62.6,59.9,30.21,SW,214,0.0,0.0,91,0.00,,SKC,0.00,VWS V14.01,2013-06-22 03:36:00,
2013-06-21 23:41:00,62.4,60.0,30.21,SW,214,0.0,1.0,92,0.00,,SKC,0.00,VWS V14.01,2013-06-22 03:41:00,
2013-06-21 23:46:00,62.1,59.8,30.22,SW,214,0.0,1.0,92,0.00,,SKC,0.00,VWS V14.01,2013-06-22 03:46:00,
2013-06-21 23:51:00,62.0,59.7,30.21,SW,214,0.0,1.0,92,0.00,,SKC,0.00,VWS V14.01,2013-06-22 03:51:00,
2013-06-21 23:56:00,61.9,59.9,30.22,SW,214,0.0,1.0,93,0.00,,SKC,0.00,VWS V14.01,2013-06-22 03:56:00,